sensor_id;sensor_type;location;lat;lon;timestamp;P1;durP1;ratioP1;P2;durP2;ratioP2
4652;SDS011;9900;48.738;9.306;2023-12-20T00:01:14;5.37;;;2.40;;
4652;SDS011;9900;48.738;9.306;2023-12-20T00:03:43;2.53;;;2.30;;
4652;SDS011;9900;48.738;9.306;2023-12-20T00:06:12;1.83;;;1.73;;
4652;SDS011;9900;48.738;9.306;2023-12-20T00:08:40;1.80;;;1.70;;
4652;SDS011;9900;48.738;9.306;2023-12-20T00:11:09;2.10;;;1.80;;
4652;SDS011;9900;48.738;9.306;2023-12-20T00:13:38;2.23;;;1.70;;
4652;SDS011;9900;48.738;9.306;2023-12-20T00:16:07;1.83;;;1.73;;
4652;SDS011;9900;48.738;9.306;2023-12-20T00:18:38;1.50;;;1.37;;
4652;SDS011;9900;48.738;9.306;2023-12-20T00:21:06;1.33;;;1.23;;
4652;SDS011;9900;48.738;9.306;2023-12-20T00:23:35;1.73;;;1.40;;
4652;SDS011;9900;48.738;9.306;2023-12-20T00:26:04;2.23;;;1.50;;
4652;SDS011;9900;48.738;9.306;2023-12-20T00:28:33;1.10;;;1.00;;
4652;SDS011;9900;48.738;9.306;2023-12-20T00:31:02;3.00;;;1.60;;
4652;SDS011;9900;48.738;9.306;2023-12-20T00:33:32;1.30;;;1.20;;
4652;SDS011;9900;48.738;9.306;2023-12-20T00:36:02;1.10;;;1.00;;
4652;SDS011;9900;48.738;9.306;2023-12-20T00:38:32;1.00;;;0.90;;
4652;SDS011;9900;48.738;9.306;2023-12-20T00:41:01;1.43;;;0.90;;
4652;SDS011;9900;48.738;9.306;2023-12-20T00:43:31;1.03;;;0.90;;
4652;SDS011;9900;48.738;9.306;2023-12-20T00:45:59;1.07;;;0.90;;
4652;SDS011;9900;48.738;9.306;2023-12-20T00:48:28;1.00;;;0.90;;
4652;SDS011;9900;48.738;9.306;2023-12-20T00:50:58;0.83;;;0.83;;
4652;SDS011;9900;48.738;9.306;2023-12-20T00:53:29;0.90;;;0.83;;
4652;SDS011;9900;48.738;9.306;2023-12-20T00:55:57;1.67;;;0.90;;
4652;SDS011;9900;48.738;9.306;2023-12-20T00:58:27;1.20;;;1.07;;
4652;SDS011;9900;48.738;9.306;2023-12-20T01:00:56;1.40;;;1.27;;
4652;SDS011;9900;48.738;9.306;2023-12-20T01:03:25;1.30;;;1.10;;
4652;SDS011;9900;48.738;9.306;2023-12-20T01:05:54;1.00;;;1.00;;
4652;SDS011;9900;48.738;9.306;2023-12-20T01:08:23;1.73;;;1.30;;
4652;SDS011;9900;48.738;9.306;2023-12-20T01:10:53;1.20;;;0.90;;
4652;SDS011;9900;48.738;9.306;2023-12-20T01:13:22;1.17;;;1.07;;
4652;SDS011;9900;48.738;9.306;2023-12-20T01:15:51;1.13;;;0.93;;
4652;SDS011;9900;48.738;9.306;2023-12-20T01:18:20;1.03;;;0.90;;
4652;SDS011;9900;48.738;9.306;2023-12-20T01:20:49;1.47;;;0.90;;
4652;SDS011;9900;48.738;9.306;2023-12-20T01:23:18;1.20;;;1.10;;
4652;SDS011;9900;48.738;9.306;2023-12-20T01:25:47;0.90;;;0.90;;
4652;SDS011;9900;48.738;9.306;2023-12-20T01:28:17;7.90;;;0.90;;
4652;SDS011;9900;48.738;9.306;2023-12-20T01:30:46;0.67;;;0.67;;
4652;SDS011;9900;48.738;9.306;2023-12-20T01:33:15;0.90;;;0.90;;
4652;SDS011;9900;48.738;9.306;2023-12-20T01:35:44;1.10;;;1.00;;
4652;SDS011;9900;48.738;9.306;2023-12-20T01:38:13;1.10;;;1.00;;
4652;SDS011;9900;48.738;9.306;2023-12-20T01:40:42;1.10;;;0.73;;
4652;SDS011;9900;48.738;9.306;2023-12-20T01:43:10;1.00;;;0.90;;
4652;SDS011;9900;48.738;9.306;2023-12-20T01:45:41;1.20;;;1.10;;
4652;SDS011;9900;48.738;9.306;2023-12-20T01:48:10;1.67;;;0.90;;
4652;SDS011;9900;48.738;9.306;2023-12-20T01:50:39;5.20;;;1.00;;
4652;SDS011;9900;48.738;9.306;2023-12-20T01:53:08;1.77;;;0.90;;
4652;SDS011;9900;48.738;9.306;2023-12-20T01:55:38;1.10;;;0.80;;
4652;SDS011;9900;48.738;9.306;2023-12-20T01:58:08;1.00;;;0.90;;
4652;SDS011;9900;48.738;9.306;2023-12-20T02:00:37;0.77;;;0.77;;
4652;SDS011;9900;48.738;9.306;2023-12-20T02:03:08;0.70;;;0.67;;
4652;SDS011;9900;48.738;9.306;2023-12-20T02:05:37;3.57;;;0.80;;
4652;SDS011;9900;48.738;9.306;2023-12-20T02:08:06;1.40;;;1.30;;
4652;SDS011;9900;48.738;9.306;2023-12-20T02:10:34;0.97;;;0.70;;
4652;SDS011;9900;48.738;9.306;2023-12-20T02:13:03;0.80;;;0.80;;
4652;SDS011;9900;48.738;9.306;2023-12-20T02:15:32;0.80;;;0.80;;
4652;SDS011;9900;48.738;9.306;2023-12-20T02:18:04;1.40;;;0.87;;
4652;SDS011;9900;48.738;9.306;2023-12-20T02:20:35;1.27;;;0.90;;
4652;SDS011;9900;48.738;9.306;2023-12-20T02:23:05;0.90;;;0.80;;
4652;SDS011;9900;48.738;9.306;2023-12-20T02:25:34;1.00;;;0.90;;
4652;SDS011;9900;48.738;9.306;2023-12-20T02:28:03;0.90;;;0.87;;
4652;SDS011;9900;48.738;9.306;2023-12-20T02:30:32;0.80;;;0.80;;
4652;SDS011;9900;48.738;9.306;2023-12-20T02:33:01;0.80;;;0.80;;
4652;SDS011;9900;48.738;9.306;2023-12-20T02:35:32;1.70;;;1.00;;
4652;SDS011;9900;48.738;9.306;2023-12-20T02:38:01;0.87;;;0.87;;
4652;SDS011;9900;48.738;9.306;2023-12-20T02:40:31;1.00;;;0.80;;
4652;SDS011;9900;48.738;9.306;2023-12-20T02:43:00;1.77;;;1.00;;
4652;SDS011;9900;48.738;9.306;2023-12-20T02:45:29;0.87;;;0.70;;
4652;SDS011;9900;48.738;9.306;2023-12-20T02:47:57;2.00;;;0.90;;
4652;SDS011;9900;48.738;9.306;2023-12-20T02:50:26;2.03;;;0.90;;
4652;SDS011;9900;48.738;9.306;2023-12-20T02:52:55;0.80;;;0.80;;
4652;SDS011;9900;48.738;9.306;2023-12-20T02:55:24;2.93;;;0.90;;
4652;SDS011;9900;48.738;9.306;2023-12-20T02:57:54;1.10;;;1.07;;
4652;SDS011;9900;48.738;9.306;2023-12-20T03:00:23;1.23;;;0.90;;
4652;SDS011;9900;48.738;9.306;2023-12-20T03:02:52;0.80;;;0.80;;
4652;SDS011;9900;48.738;9.306;2023-12-20T03:05:20;0.90;;;0.90;;
4652;SDS011;9900;48.738;9.306;2023-12-20T03:07:49;1.77;;;1.10;;
4652;SDS011;9900;48.738;9.306;2023-12-20T03:10:18;4.50;;;1.00;;
4652;SDS011;9900;48.738;9.306;2023-12-20T03:12:55;0.90;;;0.90;;
4652;SDS011;9900;48.738;9.306;2023-12-20T03:15:23;1.10;;;1.00;;
4652;SDS011;9900;48.738;9.306;2023-12-20T03:17:52;1.80;;;0.87;;
4652;SDS011;9900;48.738;9.306;2023-12-20T03:20:21;1.03;;;0.93;;
4652;SDS011;9900;48.738;9.306;2023-12-20T03:22:50;2.47;;;1.20;;
4652;SDS011;9900;48.738;9.306;2023-12-20T03:25:19;1.30;;;1.20;;
4652;SDS011;9900;48.738;9.306;2023-12-20T03:27:48;1.23;;;1.13;;
4652;SDS011;9900;48.738;9.306;2023-12-20T03:30:18;4.03;;;1.03;;
4652;SDS011;9900;48.738;9.306;2023-12-20T03:32:47;1.67;;;1.40;;
4652;SDS011;9900;48.738;9.306;2023-12-20T03:35:15;2.10;;;1.13;;
4652;SDS011;9900;48.738;9.306;2023-12-20T03:37:44;1.73;;;1.53;;
4652;SDS011;9900;48.738;9.306;2023-12-20T03:40:13;2.50;;;1.20;;
4652;SDS011;9900;48.738;9.306;2023-12-20T03:42:42;1.30;;;1.13;;
4652;SDS011;9900;48.738;9.306;2023-12-20T03:45:11;1.63;;;1.10;;
4652;SDS011;9900;48.738;9.306;2023-12-20T03:47:41;1.30;;;1.03;;
4652;SDS011;9900;48.738;9.306;2023-12-20T03:50:10;1.23;;;1.20;;
4652;SDS011;9900;48.738;9.306;2023-12-20T03:52:39;2.80;;;1.10;;
4652;SDS011;9900;48.738;9.306;2023-12-20T03:55:08;1.30;;;1.00;;
4652;SDS011;9900;48.738;9.306;2023-12-20T03:57:37;4.00;;;1.10;;
4652;SDS011;9900;48.738;9.306;2023-12-20T04:00:07;1.10;;;0.90;;
4652;SDS011;9900;48.738;9.306;2023-12-20T04:02:37;7.33;;;1.03;;
4652;SDS011;9900;48.738;9.306;2023-12-20T04:05:09;4.30;;;1.40;;
4652;SDS011;9900;48.738;9.306;2023-12-20T04:07:38;1.90;;;1.60;;
4652;SDS011;9900;48.738;9.306;2023-12-20T04:10:07;1.57;;;1.13;;
4652;SDS011;9900;48.738;9.306;2023-12-20T04:12:36;2.37;;;1.07;;
4652;SDS011;9900;48.738;9.306;2023-12-20T04:15:05;1.27;;;1.17;;
4652;SDS011;9900;48.738;9.306;2023-12-20T04:17:37;2.50;;;1.40;;
4652;SDS011;9900;48.738;9.306;2023-12-20T04:20:06;2.17;;;1.60;;
4652;SDS011;9900;48.738;9.306;2023-12-20T04:22:38;1.40;;;1.20;;
4652;SDS011;9900;48.738;9.306;2023-12-20T04:25:07;2.73;;;1.43;;
4652;SDS011;9900;48.738;9.306;2023-12-20T04:27:37;1.73;;;1.20;;
4652;SDS011;9900;48.738;9.306;2023-12-20T04:30:06;5.30;;;1.50;;
4652;SDS011;9900;48.738;9.306;2023-12-20T04:32:36;2.63;;;1.33;;
4652;SDS011;9900;48.738;9.306;2023-12-20T04:35:05;1.00;;;1.00;;
4652;SDS011;9900;48.738;9.306;2023-12-20T04:37:36;2.90;;;1.37;;
4652;SDS011;9900;48.738;9.306;2023-12-20T04:40:05;2.73;;;1.30;;
4652;SDS011;9900;48.738;9.306;2023-12-20T04:42:35;2.77;;;1.57;;
4652;SDS011;9900;48.738;9.306;2023-12-20T04:45:04;2.07;;;1.47;;
4652;SDS011;9900;48.738;9.306;2023-12-20T04:47:33;3.63;;;1.60;;
4652;SDS011;9900;48.738;9.306;2023-12-20T04:50:02;4.73;;;2.13;;
4652;SDS011;9900;48.738;9.306;2023-12-20T04:52:32;3.10;;;1.53;;
4652;SDS011;9900;48.738;9.306;2023-12-20T04:55:03;3.90;;;1.30;;
4652;SDS011;9900;48.738;9.306;2023-12-20T04:57:32;3.37;;;1.40;;
4652;SDS011;9900;48.738;9.306;2023-12-20T05:00:01;2.97;;;1.73;;
4652;SDS011;9900;48.738;9.306;2023-12-20T05:02:30;5.20;;;1.80;;
4652;SDS011;9900;48.738;9.306;2023-12-20T05:04:59;6.70;;;1.80;;
4652;SDS011;9900;48.738;9.306;2023-12-20T05:07:27;5.33;;;2.50;;
4652;SDS011;9900;48.738;9.306;2023-12-20T05:09:56;4.33;;;2.00;;
4652;SDS011;9900;48.738;9.306;2023-12-20T05:12:26;1.83;;;1.63;;
4652;SDS011;9900;48.738;9.306;2023-12-20T05:14:55;2.07;;;1.30;;
4652;SDS011;9900;48.738;9.306;2023-12-20T05:17:24;2.80;;;1.40;;
4652;SDS011;9900;48.738;9.306;2023-12-20T05:19:53;3.73;;;1.33;;
4652;SDS011;9900;48.738;9.306;2023-12-20T05:22:21;3.70;;;1.67;;
4652;SDS011;9900;48.738;9.306;2023-12-20T05:24:50;2.13;;;1.67;;
4652;SDS011;9900;48.738;9.306;2023-12-20T05:27:19;3.33;;;1.30;;
4652;SDS011;9900;48.738;9.306;2023-12-20T05:29:49;2.30;;;1.30;;
4652;SDS011;9900;48.738;9.306;2023-12-20T05:32:18;1.60;;;1.10;;
4652;SDS011;9900;48.738;9.306;2023-12-20T05:34:47;2.80;;;1.50;;
4652;SDS011;9900;48.738;9.306;2023-12-20T05:37:16;4.37;;;1.33;;
4652;SDS011;9900;48.738;9.306;2023-12-20T05:39:44;10.63;;;1.27;;
4652;SDS011;9900;48.738;9.306;2023-12-20T05:42:13;3.97;;;1.77;;
4652;SDS011;9900;48.738;9.306;2023-12-20T05:44:42;2.30;;;1.17;;
4652;SDS011;9900;48.738;9.306;2023-12-20T05:47:12;2.90;;;1.30;;
4652;SDS011;9900;48.738;9.306;2023-12-20T05:49:41;2.17;;;1.23;;
4652;SDS011;9900;48.738;9.306;2023-12-20T05:52:11;3.33;;;0.93;;
4652;SDS011;9900;48.738;9.306;2023-12-20T05:54:40;3.50;;;1.13;;
4652;SDS011;9900;48.738;9.306;2023-12-20T05:57:09;3.07;;;1.20;;
4652;SDS011;9900;48.738;9.306;2023-12-20T05:59:38;11.70;;;1.80;;
4652;SDS011;9900;48.738;9.306;2023-12-20T06:02:06;1.53;;;1.10;;
4652;SDS011;9900;48.738;9.306;2023-12-20T06:04:37;2.13;;;1.20;;
4652;SDS011;9900;48.738;9.306;2023-12-20T06:07:06;3.33;;;1.20;;
4652;SDS011;9900;48.738;9.306;2023-12-20T06:09:34;3.63;;;1.80;;
4652;SDS011;9900;48.738;9.306;2023-12-20T06:12:04;3.50;;;1.60;;
4652;SDS011;9900;48.738;9.306;2023-12-20T06:14:33;5.30;;;1.20;;
4652;SDS011;9900;48.738;9.306;2023-12-20T06:17:02;4.50;;;1.30;;
4652;SDS011;9900;48.738;9.306;2023-12-20T06:19:31;3.23;;;1.10;;
4652;SDS011;9900;48.738;9.306;2023-12-20T06:22:01;1.40;;;1.10;;
4652;SDS011;9900;48.738;9.306;2023-12-20T06:24:31;3.23;;;1.50;;
4652;SDS011;9900;48.738;9.306;2023-12-20T06:27:01;11.73;;;2.60;;
4652;SDS011;9900;48.738;9.306;2023-12-20T06:29:30;5.73;;;1.87;;
4652;SDS011;9900;48.738;9.306;2023-12-20T06:31:59;1.37;;;1.17;;
4652;SDS011;9900;48.738;9.306;2023-12-20T06:34:27;4.33;;;1.30;;
4652;SDS011;9900;48.738;9.306;2023-12-20T06:36:56;4.23;;;1.40;;
4652;SDS011;9900;48.738;9.306;2023-12-20T06:39:26;1.63;;;1.20;;
4652;SDS011;9900;48.738;9.306;2023-12-20T06:41:56;4.23;;;1.90;;
4652;SDS011;9900;48.738;9.306;2023-12-20T06:44:25;4.50;;;1.57;;
4652;SDS011;9900;48.738;9.306;2023-12-20T06:46:54;2.50;;;1.20;;
4652;SDS011;9900;48.738;9.306;2023-12-20T06:49:22;0.83;;;0.73;;
4652;SDS011;9900;48.738;9.306;2023-12-20T06:51:51;2.53;;;0.70;;
4652;SDS011;9900;48.738;9.306;2023-12-20T06:54:20;2.50;;;0.80;;
4652;SDS011;9900;48.738;9.306;2023-12-20T06:56:50;1.07;;;0.90;;
4652;SDS011;9900;48.738;9.306;2023-12-20T06:59:19;0.83;;;0.80;;
4652;SDS011;9900;48.738;9.306;2023-12-20T07:01:48;0.80;;;0.80;;
4652;SDS011;9900;48.738;9.306;2023-12-20T07:04:17;2.33;;;0.80;;
4652;SDS011;9900;48.738;9.306;2023-12-20T07:06:49;0.90;;;0.90;;
4652;SDS011;9900;48.738;9.306;2023-12-20T07:09:19;0.70;;;0.60;;
4652;SDS011;9900;48.738;9.306;2023-12-20T07:11:48;1.73;;;0.83;;
4652;SDS011;9900;48.738;9.306;2023-12-20T07:14:18;0.80;;;0.70;;
4652;SDS011;9900;48.738;9.306;2023-12-20T07:16:47;1.27;;;0.70;;
4652;SDS011;9900;48.738;9.306;2023-12-20T07:19:16;3.10;;;0.73;;
4652;SDS011;9900;48.738;9.306;2023-12-20T07:21:44;2.90;;;1.20;;
4652;SDS011;9900;48.738;9.306;2023-12-20T07:24:13;7.07;;;1.07;;
4652;SDS011;9900;48.738;9.306;2023-12-20T07:26:42;3.70;;;1.00;;
4652;SDS011;9900;48.738;9.306;2023-12-20T07:29:11;1.43;;;1.23;;
4652;SDS011;9900;48.738;9.306;2023-12-20T07:31:44;1.23;;;1.13;;
4652;SDS011;9900;48.738;9.306;2023-12-20T07:34:13;1.10;;;1.00;;
4652;SDS011;9900;48.738;9.306;2023-12-20T07:36:42;1.33;;;1.23;;
4652;SDS011;9900;48.738;9.306;2023-12-20T07:39:11;4.27;;;1.30;;
4652;SDS011;9900;48.738;9.306;2023-12-20T07:41:40;1.40;;;1.30;;
4652;SDS011;9900;48.738;9.306;2023-12-20T07:44:10;1.40;;;1.30;;
4652;SDS011;9900;48.738;9.306;2023-12-20T07:46:39;1.87;;;1.70;;
4652;SDS011;9900;48.738;9.306;2023-12-20T07:49:09;3.90;;;1.97;;
4652;SDS011;9900;48.738;9.306;2023-12-20T07:51:38;4.07;;;2.23;;
4652;SDS011;9900;48.738;9.306;2023-12-20T07:54:07;6.80;;;1.73;;
4652;SDS011;9900;48.738;9.306;2023-12-20T07:56:36;1.83;;;1.37;;
4652;SDS011;9900;48.738;9.306;2023-12-20T07:59:07;1.10;;;0.90;;
4652;SDS011;9900;48.738;9.306;2023-12-20T08:01:48;4.40;;;1.40;;
4652;SDS011;9900;48.738;9.306;2023-12-20T08:04:19;4.63;;;1.23;;
4652;SDS011;9900;48.738;9.306;2023-12-20T08:06:48;1.57;;;1.20;;
4652;SDS011;9900;48.738;9.306;2023-12-20T08:09:17;1.90;;;1.50;;
4652;SDS011;9900;48.738;9.306;2023-12-20T08:11:47;2.23;;;1.30;;
4652;SDS011;9900;48.738;9.306;2023-12-20T08:14:16;1.70;;;1.60;;
4652;SDS011;9900;48.738;9.306;2023-12-20T08:16:45;2.80;;;1.40;;
4652;SDS011;9900;48.738;9.306;2023-12-20T08:19:14;3.23;;;1.73;;
4652;SDS011;9900;48.738;9.306;2023-12-20T08:21:44;2.10;;;2.00;;
4652;SDS011;9900;48.738;9.306;2023-12-20T08:24:13;1.47;;;1.37;;
4652;SDS011;9900;48.738;9.306;2023-12-20T08:26:42;5.30;;;1.60;;
4652;SDS011;9900;48.738;9.306;2023-12-20T08:29:12;5.43;;;1.50;;
4652;SDS011;9900;48.738;9.306;2023-12-20T08:31:41;1.90;;;1.80;;
4652;SDS011;9900;48.738;9.306;2023-12-20T08:34:10;3.13;;;1.73;;
4652;SDS011;9900;48.738;9.306;2023-12-20T08:36:41;1.60;;;1.50;;
4652;SDS011;9900;48.738;9.306;2023-12-20T08:39:11;2.40;;;1.37;;
4652;SDS011;9900;48.738;9.306;2023-12-20T08:41:40;2.20;;;1.47;;
4652;SDS011;9900;48.738;9.306;2023-12-20T08:44:09;2.73;;;2.37;;
4652;SDS011;9900;48.738;9.306;2023-12-20T08:46:38;1.70;;;1.60;;
4652;SDS011;9900;48.738;9.306;2023-12-20T08:49:07;3.80;;;1.87;;
4652;SDS011;9900;48.738;9.306;2023-12-20T08:51:37;4.07;;;1.80;;
4652;SDS011;9900;48.738;9.306;2023-12-20T08:54:09;5.33;;;1.90;;
4652;SDS011;9900;48.738;9.306;2023-12-20T08:56:40;6.50;;;1.90;;
4652;SDS011;9900;48.738;9.306;2023-12-20T08:59:09;2.40;;;2.17;;
4652;SDS011;9900;48.738;9.306;2023-12-20T09:01:39;2.63;;;2.10;;
4652;SDS011;9900;48.738;9.306;2023-12-20T09:04:08;1.80;;;1.70;;
4652;SDS011;9900;48.738;9.306;2023-12-20T09:06:37;2.17;;;1.97;;
4652;SDS011;9900;48.738;9.306;2023-12-20T09:09:06;1.97;;;1.80;;
4652;SDS011;9900;48.738;9.306;2023-12-20T09:11:39;4.60;;;2.20;;
4652;SDS011;9900;48.738;9.306;2023-12-20T09:14:08;1.70;;;1.60;;
4652;SDS011;9900;48.738;9.306;2023-12-20T09:16:36;2.33;;;1.97;;
4652;SDS011;9900;48.738;9.306;2023-12-20T09:19:05;2.90;;;1.70;;
4652;SDS011;9900;48.738;9.306;2023-12-20T09:21:34;3.07;;;1.80;;
4652;SDS011;9900;48.738;9.306;2023-12-20T09:24:03;2.90;;;1.57;;
4652;SDS011;9900;48.738;9.306;2023-12-20T09:26:33;1.90;;;1.80;;
4652;SDS011;9900;48.738;9.306;2023-12-20T09:29:03;3.60;;;2.37;;
4652;SDS011;9900;48.738;9.306;2023-12-20T09:31:32;3.23;;;2.80;;
4652;SDS011;9900;48.738;9.306;2023-12-20T09:34:01;2.90;;;2.00;;
4652;SDS011;9900;48.738;9.306;2023-12-20T09:36:31;2.80;;;1.80;;
4652;SDS011;9900;48.738;9.306;2023-12-20T09:39:03;3.50;;;1.97;;
4652;SDS011;9900;48.738;9.306;2023-12-20T09:41:34;4.83;;;1.77;;
4652;SDS011;9900;48.738;9.306;2023-12-20T09:44:09;4.37;;;1.73;;
4652;SDS011;9900;48.738;9.306;2023-12-20T09:46:42;1.70;;;1.60;;
4652;SDS011;9900;48.738;9.306;2023-12-20T09:49:13;1.73;;;1.60;;
4652;SDS011;9900;48.738;9.306;2023-12-20T09:51:42;2.13;;;1.80;;
4652;SDS011;9900;48.738;9.306;2023-12-20T09:54:11;1.50;;;1.40;;
4652;SDS011;9900;48.738;9.306;2023-12-20T09:56:41;5.90;;;3.20;;
4652;SDS011;9900;48.738;9.306;2023-12-20T09:59:14;6.43;;;2.53;;
4652;SDS011;9900;48.738;9.306;2023-12-20T10:01:43;3.33;;;2.57;;
4652;SDS011;9900;48.738;9.306;2023-12-20T10:04:12;1.73;;;1.50;;
4652;SDS011;9900;48.738;9.306;2023-12-20T10:06:56;6.47;;;1.57;;
4652;SDS011;9900;48.738;9.306;2023-12-20T10:09:25;7.63;;;1.40;;
4652;SDS011;9900;48.738;9.306;2023-12-20T10:11:56;2.13;;;1.20;;
4652;SDS011;9900;48.738;9.306;2023-12-20T10:14:27;2.17;;;1.00;;
4652;SDS011;9900;48.738;9.306;2023-12-20T10:17:01;3.60;;;1.23;;
4652;SDS011;9900;48.738;9.306;2023-12-20T10:19:31;3.73;;;1.13;;
4652;SDS011;9900;48.738;9.306;2023-12-20T10:22:00;6.83;;;1.17;;
4652;SDS011;9900;48.738;9.306;2023-12-20T10:24:29;2.23;;;1.30;;
4652;SDS011;9900;48.738;9.306;2023-12-20T10:27:02;3.80;;;1.50;;
4652;SDS011;9900;48.738;9.306;2023-12-20T10:29:34;3.97;;;1.40;;
4652;SDS011;9900;48.738;9.306;2023-12-20T10:32:21;6.90;;;1.93;;
4652;SDS011;9900;48.738;9.306;2023-12-20T10:34:51;6.00;;;1.20;;
4652;SDS011;9900;48.738;9.306;2023-12-20T10:37:21;3.67;;;1.00;;
4652;SDS011;9900;48.738;9.306;2023-12-20T10:39:50;5.90;;;1.10;;
4652;SDS011;9900;48.738;9.306;2023-12-20T10:42:24;4.23;;;1.47;;
4652;SDS011;9900;48.738;9.306;2023-12-20T10:44:56;3.90;;;1.20;;
4652;SDS011;9900;48.738;9.306;2023-12-20T10:47:27;3.60;;;0.97;;
4652;SDS011;9900;48.738;9.306;2023-12-20T10:49:57;4.20;;;1.33;;
4652;SDS011;9900;48.738;9.306;2023-12-20T10:52:28;10.03;;;1.73;;
4652;SDS011;9900;48.738;9.306;2023-12-20T10:54:58;2.70;;;1.67;;
4652;SDS011;9900;48.738;9.306;2023-12-20T10:57:27;14.87;;;1.57;;
4652;SDS011;9900;48.738;9.306;2023-12-20T10:59:58;11.07;;;1.80;;
4652;SDS011;9900;48.738;9.306;2023-12-20T11:02:31;3.03;;;1.30;;
4652;SDS011;9900;48.738;9.306;2023-12-20T11:05:04;4.30;;;1.10;;
4652;SDS011;9900;48.738;9.306;2023-12-20T11:07:38;6.50;;;1.40;;
4652;SDS011;9900;48.738;9.306;2023-12-20T11:10:13;1.63;;;1.40;;
4652;SDS011;9900;48.738;9.306;2023-12-20T11:12:46;2.80;;;1.37;;
4652;SDS011;9900;48.738;9.306;2023-12-20T11:15:19;3.07;;;1.30;;
4652;SDS011;9900;48.738;9.306;2023-12-20T11:17:54;3.63;;;1.40;;
4652;SDS011;9900;48.738;9.306;2023-12-20T11:20:24;3.67;;;1.10;;
4652;SDS011;9900;48.738;9.306;2023-12-20T11:23:04;4.60;;;1.20;;
4652;SDS011;9900;48.738;9.306;2023-12-20T11:25:46;3.07;;;1.00;;
4652;SDS011;9900;48.738;9.306;2023-12-20T11:28:16;6.73;;;1.73;;
4652;SDS011;9900;48.738;9.306;2023-12-20T11:30:51;2.63;;;1.20;;
4652;SDS011;9900;48.738;9.306;2023-12-20T11:33:21;4.87;;;1.60;;
4652;SDS011;9900;48.738;9.306;2023-12-20T11:35:56;5.00;;;1.30;;
4652;SDS011;9900;48.738;9.306;2023-12-20T11:38:25;1.47;;;0.97;;
4652;SDS011;9900;48.738;9.306;2023-12-20T11:40:54;3.87;;;1.17;;
4652;SDS011;9900;48.738;9.306;2023-12-20T11:43:31;6.23;;;2.00;;
4652;SDS011;9900;48.738;9.306;2023-12-20T11:46:06;5.70;;;1.47;;
4652;SDS011;9900;48.738;9.306;2023-12-20T11:48:37;4.23;;;1.40;;
4652;SDS011;9900;48.738;9.306;2023-12-20T11:51:09;1.63;;;1.10;;
4652;SDS011;9900;48.738;9.306;2023-12-20T11:53:39;3.57;;;1.10;;
4652;SDS011;9900;48.738;9.306;2023-12-20T11:56:08;3.70;;;1.57;;
4652;SDS011;9900;48.738;9.306;2023-12-20T11:58:37;2.07;;;1.20;;
4652;SDS011;9900;48.738;9.306;2023-12-20T12:01:07;2.90;;;1.13;;
4652;SDS011;9900;48.738;9.306;2023-12-20T12:03:36;4.60;;;1.63;;
4652;SDS011;9900;48.738;9.306;2023-12-20T12:06:05;7.93;;;1.77;;
4652;SDS011;9900;48.738;9.306;2023-12-20T12:08:35;2.03;;;1.30;;
4652;SDS011;9900;48.738;9.306;2023-12-20T12:11:04;7.17;;;2.17;;
4652;SDS011;9900;48.738;9.306;2023-12-20T12:13:33;7.40;;;1.80;;
4652;SDS011;9900;48.738;9.306;2023-12-20T12:16:03;5.83;;;2.03;;
4652;SDS011;9900;48.738;9.306;2023-12-20T12:18:34;2.80;;;1.80;;
4652;SDS011;9900;48.738;9.306;2023-12-20T12:21:04;1.87;;;1.13;;
4652;SDS011;9900;48.738;9.306;2023-12-20T12:23:42;4.10;;;1.30;;
4652;SDS011;9900;48.738;9.306;2023-12-20T12:26:11;8.20;;;1.40;;
4652;SDS011;9900;48.738;9.306;2023-12-20T12:28:40;2.97;;;1.30;;
4652;SDS011;9900;48.738;9.306;2023-12-20T12:31:12;4.60;;;1.30;;
4652;SDS011;9900;48.738;9.306;2023-12-20T12:33:43;1.77;;;1.13;;
4652;SDS011;9900;48.738;9.306;2023-12-20T12:36:12;10.70;;;1.40;;
4652;SDS011;9900;48.738;9.306;2023-12-20T12:38:43;5.00;;;1.00;;
4652;SDS011;9900;48.738;9.306;2023-12-20T12:41:12;5.37;;;1.10;;
4652;SDS011;9900;48.738;9.306;2023-12-20T12:43:42;3.43;;;1.60;;
4652;SDS011;9900;48.738;9.306;2023-12-20T12:46:11;2.80;;;1.57;;
4652;SDS011;9900;48.738;9.306;2023-12-20T12:48:40;7.67;;;1.60;;
4652;SDS011;9900;48.738;9.306;2023-12-20T12:51:14;3.73;;;1.40;;
4652;SDS011;9900;48.738;9.306;2023-12-20T12:53:43;5.93;;;1.50;;
4652;SDS011;9900;48.738;9.306;2023-12-20T12:56:12;5.60;;;1.30;;
4652;SDS011;9900;48.738;9.306;2023-12-20T12:58:41;2.40;;;1.10;;
4652;SDS011;9900;48.738;9.306;2023-12-20T13:01:10;2.70;;;1.27;;
4652;SDS011;9900;48.738;9.306;2023-12-20T13:03:39;7.93;;;1.20;;
4652;SDS011;9900;48.738;9.306;2023-12-20T13:06:08;7.53;;;1.80;;
4652;SDS011;9900;48.738;9.306;2023-12-20T13:08:38;3.17;;;1.30;;
4652;SDS011;9900;48.738;9.306;2023-12-20T13:11:07;8.17;;;1.63;;
4652;SDS011;9900;48.738;9.306;2023-12-20T13:13:36;4.10;;;1.50;;
4652;SDS011;9900;48.738;9.306;2023-12-20T13:16:05;3.20;;;1.20;;
4652;SDS011;9900;48.738;9.306;2023-12-20T13:18:35;5.67;;;1.20;;
4652;SDS011;9900;48.738;9.306;2023-12-20T13:21:04;2.70;;;1.20;;
4652;SDS011;9900;48.738;9.306;2023-12-20T13:23:32;2.67;;;1.50;;
4652;SDS011;9900;48.738;9.306;2023-12-20T13:26:07;3.23;;;1.20;;
4652;SDS011;9900;48.738;9.306;2023-12-20T13:28:36;2.87;;;1.40;;
4652;SDS011;9900;48.738;9.306;2023-12-20T13:31:05;2.37;;;1.23;;
4652;SDS011;9900;48.738;9.306;2023-12-20T13:33:35;6.90;;;1.10;;
4652;SDS011;9900;48.738;9.306;2023-12-20T13:36:04;2.90;;;1.10;;
4652;SDS011;9900;48.738;9.306;2023-12-20T13:38:34;4.53;;;1.50;;
4652;SDS011;9900;48.738;9.306;2023-12-20T13:41:03;2.53;;;0.90;;
4652;SDS011;9900;48.738;9.306;2023-12-20T13:43:34;4.13;;;1.00;;
4652;SDS011;9900;48.738;9.306;2023-12-20T13:46:03;2.87;;;1.00;;
4652;SDS011;9900;48.738;9.306;2023-12-20T13:48:32;3.93;;;1.50;;
4652;SDS011;9900;48.738;9.306;2023-12-20T13:51:00;3.47;;;1.17;;
4652;SDS011;9900;48.738;9.306;2023-12-20T13:53:30;6.00;;;1.53;;
4652;SDS011;9900;48.738;9.306;2023-12-20T13:55:59;5.07;;;1.30;;
4652;SDS011;9900;48.738;9.306;2023-12-20T13:58:28;7.50;;;1.40;;
4652;SDS011;9900;48.738;9.306;2023-12-20T14:00:58;2.20;;;1.20;;
4652;SDS011;9900;48.738;9.306;2023-12-20T14:03:27;3.93;;;1.03;;
4652;SDS011;9900;48.738;9.306;2023-12-20T14:05:56;3.47;;;1.23;;
4652;SDS011;9900;48.738;9.306;2023-12-20T14:08:25;2.07;;;1.00;;
4652;SDS011;9900;48.738;9.306;2023-12-20T14:10:54;4.67;;;1.37;;
4652;SDS011;9900;48.738;9.306;2023-12-20T14:13:23;5.03;;;1.20;;
4652;SDS011;9900;48.738;9.306;2023-12-20T14:15:52;4.90;;;1.70;;
4652;SDS011;9900;48.738;9.306;2023-12-20T14:18:23;2.83;;;1.53;;
4652;SDS011;9900;48.738;9.306;2023-12-20T14:20:52;4.63;;;1.47;;
4652;SDS011;9900;48.738;9.306;2023-12-20T14:23:21;6.43;;;1.20;;
4652;SDS011;9900;48.738;9.306;2023-12-20T14:25:51;5.67;;;1.40;;
4652;SDS011;9900;48.738;9.306;2023-12-20T14:28:20;8.23;;;3.17;;
4652;SDS011;9900;48.738;9.306;2023-12-20T14:30:49;13.47;;;2.27;;
4652;SDS011;9900;48.738;9.306;2023-12-20T14:33:18;3.40;;;1.60;;
4652;SDS011;9900;48.738;9.306;2023-12-20T14:35:50;5.43;;;1.37;;
4652;SDS011;9900;48.738;9.306;2023-12-20T14:38:19;4.13;;;1.20;;
4652;SDS011;9900;48.738;9.306;2023-12-20T14:40:48;3.73;;;1.20;;
4652;SDS011;9900;48.738;9.306;2023-12-20T14:43:18;2.87;;;1.57;;
4652;SDS011;9900;48.738;9.306;2023-12-20T14:45:49;3.00;;;1.10;;
4652;SDS011;9900;48.738;9.306;2023-12-20T14:48:19;4.03;;;1.40;;
4652;SDS011;9900;48.738;9.306;2023-12-20T14:50:48;4.47;;;1.60;;
4652;SDS011;9900;48.738;9.306;2023-12-20T14:53:19;9.70;;;2.20;;
4652;SDS011;9900;48.738;9.306;2023-12-20T14:55:50;2.10;;;1.10;;
4652;SDS011;9900;48.738;9.306;2023-12-20T14:58:19;6.50;;;1.93;;
4652;SDS011;9900;48.738;9.306;2023-12-20T15:00:48;7.10;;;1.47;;
4652;SDS011;9900;48.738;9.306;2023-12-20T15:03:16;3.70;;;1.40;;
4652;SDS011;9900;48.738;9.306;2023-12-20T15:05:46;1.80;;;1.07;;
4652;SDS011;9900;48.738;9.306;2023-12-20T15:08:16;2.80;;;1.20;;
4652;SDS011;9900;48.738;9.306;2023-12-20T15:10:45;7.83;;;1.10;;
4652;SDS011;9900;48.738;9.306;2023-12-20T15:13:14;5.23;;;1.73;;
4652;SDS011;9900;48.738;9.306;2023-12-20T15:15:43;3.60;;;1.50;;
4652;SDS011;9900;48.738;9.306;2023-12-20T15:18:13;9.97;;;1.70;;
4652;SDS011;9900;48.738;9.306;2023-12-20T15:20:43;5.70;;;1.90;;
4652;SDS011;9900;48.738;9.306;2023-12-20T15:23:12;3.00;;;1.57;;
4652;SDS011;9900;48.738;9.306;2023-12-20T15:25:43;5.83;;;1.50;;
4652;SDS011;9900;48.738;9.306;2023-12-20T15:28:12;2.93;;;1.10;;
4652;SDS011;9900;48.738;9.306;2023-12-20T15:30:40;2.80;;;1.23;;